sensor_id;sensor_type;location;lat;lon;timestamp;P1;durP1;ratioP1;P2;durP2;ratioP2
68315;SDS011;55508;54.368;18.406;2023-10-19T00:01:16;17.65;;;10.88;;
68315;SDS011;55508;54.368;18.406;2023-10-19T00:03:44;21.63;;;12.43;;
68315;SDS011;55508;54.368;18.406;2023-10-19T00:06:11;14.23;;;9.68;;
68315;SDS011;55508;54.368;18.406;2023-10-19T00:08:38;14.13;;;9.38;;
68315;SDS011;55508;54.368;18.406;2023-10-19T00:11:09;18.50;;;8.77;;
68315;SDS011;55508;54.368;18.406;2023-10-19T00:13:37;13.90;;;11.25;;
68315;SDS011;55508;54.368;18.406;2023-10-19T00:16:06;11.13;;;9.35;;
68315;SDS011;55508;54.368;18.406;2023-10-19T00:18:53;50.22;;;12.80;;
68315;SDS011;55508;54.368;18.406;2023-10-19T00:21:20;24.98;;;12.00;;
68315;SDS011;55508;54.368;18.406;2023-10-19T00:23:53;16.70;;;10.95;;
68315;SDS011;55508;54.368;18.406;2023-10-19T00:26:28;212.20;;;19.40;;
68315;SDS011;55508;54.368;18.406;2023-10-19T00:28:57;76.78;;;18.98;;
68315;SDS011;55508;54.368;18.406;2023-10-19T00:31:25;26.65;;;17.83;;
68315;SDS011;55508;54.368;18.406;2023-10-19T00:33:56;25.95;;;18.08;;
68315;SDS011;55508;54.368;18.406;2023-10-19T00:36:23;28.23;;;18.27;;
68315;SDS011;55508;54.368;18.406;2023-10-19T00:38:52;21.35;;;14.00;;
68315;SDS011;55508;54.368;18.406;2023-10-19T00:41:24;28.67;;;17.63;;
68315;SDS011;55508;54.368;18.406;2023-10-19T00:44:00;24.13;;;16.05;;
68315;SDS011;55508;54.368;18.406;2023-10-19T00:46:38;27.15;;;16.90;;
68315;SDS011;55508;54.368;18.406;2023-10-19T00:49:11;24.95;;;16.48;;
68315;SDS011;55508;54.368;18.406;2023-10-19T00:51:47;23.58;;;17.10;;
68315;SDS011;55508;54.368;18.406;2023-10-19T00:54:26;20.55;;;14.00;;
68315;SDS011;55508;54.368;18.406;2023-10-19T00:57:01;16.30;;;11.45;;
68315;SDS011;55508;54.368;18.406;2023-10-19T00:59:37;12.95;;;10.90;;
68315;SDS011;55508;54.368;18.406;2023-10-19T01:02:10;12.32;;;10.40;;
68315;SDS011;55508;54.368;18.406;2023-10-19T01:04:57;24.45;;;13.60;;
68315;SDS011;55508;54.368;18.406;2023-10-19T01:07:32;20.85;;;13.25;;
68315;SDS011;55508;54.368;18.406;2023-10-19T01:10:06;21.67;;;12.98;;
68315;SDS011;55508;54.368;18.406;2023-10-19T01:12:47;17.42;;;11.48;;
68315;SDS011;55508;54.368;18.406;2023-10-19T01:15:15;22.80;;;10.98;;
68315;SDS011;55508;54.368;18.406;2023-10-19T01:17:45;18.90;;;11.77;;
68315;SDS011;55508;54.368;18.406;2023-10-19T01:20:24;22.40;;;12.23;;
68315;SDS011;55508;54.368;18.406;2023-10-19T01:23:04;20.77;;;12.77;;
68315;SDS011;55508;54.368;18.406;2023-10-19T01:25:48;19.92;;;12.85;;
68315;SDS011;55508;54.368;18.406;2023-10-19T01:28:30;21.92;;;13.73;;
68315;SDS011;55508;54.368;18.406;2023-10-19T01:31:15;21.02;;;12.85;;
68315;SDS011;55508;54.368;18.406;2023-10-19T01:33:44;23.73;;;13.57;;
68315;SDS011;55508;54.368;18.406;2023-10-19T01:36:11;24.73;;;12.88;;
68315;SDS011;55508;54.368;18.406;2023-10-19T01:38:41;19.13;;;12.95;;
68315;SDS011;55508;54.368;18.406;2023-10-19T01:41:08;28.88;;;16.02;;
68315;SDS011;55508;54.368;18.406;2023-10-19T01:43:46;26.45;;;14.60;;
68315;SDS011;55508;54.368;18.406;2023-10-19T01:46:15;37.13;;;18.52;;
68315;SDS011;55508;54.368;18.406;2023-10-19T01:49:04;29.73;;;16.17;;
68315;SDS011;55508;54.368;18.406;2023-10-19T01:51:32;26.13;;;15.40;;
68315;SDS011;55508;54.368;18.406;2023-10-19T01:54:00;23.05;;;14.05;;
68315;SDS011;55508;54.368;18.406;2023-10-19T01:56:30;23.67;;;12.10;;
68315;SDS011;55508;54.368;18.406;2023-10-19T01:58:57;21.48;;;12.10;;
68315;SDS011;55508;54.368;18.406;2023-10-19T02:01:25;25.05;;;11.40;;
68315;SDS011;55508;54.368;18.406;2023-10-19T02:03:57;19.67;;;12.38;;
68315;SDS011;55508;54.368;18.406;2023-10-19T02:06:28;21.25;;;14.27;;
68315;SDS011;55508;54.368;18.406;2023-10-19T02:09:06;23.00;;;12.82;;
68315;SDS011;55508;54.368;18.406;2023-10-19T02:11:55;18.95;;;12.18;;
68315;SDS011;55508;54.368;18.406;2023-10-19T02:14:25;18.38;;;11.02;;
68315;SDS011;55508;54.368;18.406;2023-10-19T02:16:53;19.92;;;11.23;;
68315;SDS011;55508;54.368;18.406;2023-10-19T02:19:27;16.95;;;10.85;;
68315;SDS011;55508;54.368;18.406;2023-10-19T02:21:59;15.63;;;11.15;;
68315;SDS011;55508;54.368;18.406;2023-10-19T02:24:30;18.35;;;9.38;;
68315;SDS011;55508;54.368;18.406;2023-10-19T02:26:58;12.55;;;9.32;;
68315;SDS011;55508;54.368;18.406;2023-10-19T02:29:27;18.05;;;9.75;;
68315;SDS011;55508;54.368;18.406;2023-10-19T02:31:54;14.70;;;9.60;;
68315;SDS011;55508;54.368;18.406;2023-10-19T02:34:23;12.73;;;9.80;;
68315;SDS011;55508;54.368;18.406;2023-10-19T02:36:51;9.10;;;8.10;;
68315;SDS011;55508;54.368;18.406;2023-10-19T02:39:18;10.13;;;7.05;;
68315;SDS011;55508;54.368;18.406;2023-10-19T02:41:46;10.48;;;6.05;;
68315;SDS011;55508;54.368;18.406;2023-10-19T02:44:16;8.70;;;6.35;;
68315;SDS011;55508;54.368;18.406;2023-10-19T02:46:49;17.83;;;10.10;;
68315;SDS011;55508;54.368;18.406;2023-10-19T02:49:20;20.05;;;11.73;;
68315;SDS011;55508;54.368;18.406;2023-10-19T02:51:49;17.30;;;10.93;;
68315;SDS011;55508;54.368;18.406;2023-10-19T02:54:19;17.40;;;11.13;;
68315;SDS011;55508;54.368;18.406;2023-10-19T02:56:50;17.52;;;10.20;;
68315;SDS011;55508;54.368;18.406;2023-10-19T02:59:20;15.13;;;9.45;;
68315;SDS011;55508;54.368;18.406;2023-10-19T03:01:55;14.40;;;9.90;;
68315;SDS011;55508;54.368;18.406;2023-10-19T03:04:43;15.38;;;9.80;;
68315;SDS011;55508;54.368;18.406;2023-10-19T03:07:10;10.93;;;7.97;;
68315;SDS011;55508;54.368;18.406;2023-10-19T03:09:39;13.60;;;8.82;;
68315;SDS011;55508;54.368;18.406;2023-10-19T03:12:11;10.98;;;8.43;;
68315;SDS011;55508;54.368;18.406;2023-10-19T03:14:40;13.57;;;8.43;;
68315;SDS011;55508;54.368;18.406;2023-10-19T03:17:13;14.70;;;8.50;;
68315;SDS011;55508;54.368;18.406;2023-10-19T03:19:41;9.73;;;8.30;;
68315;SDS011;55508;54.368;18.406;2023-10-19T03:22:09;16.92;;;11.10;;
68315;SDS011;55508;54.368;18.406;2023-10-19T03:24:36;12.82;;;11.23;;
68315;SDS011;55508;54.368;18.406;2023-10-19T03:27:09;11.75;;;9.82;;
68315;SDS011;55508;54.368;18.406;2023-10-19T03:29:43;15.45;;;8.90;;
68315;SDS011;55508;54.368;18.406;2023-10-19T03:32:20;10.70;;;9.05;;
68315;SDS011;55508;54.368;18.406;2023-10-19T03:34:53;11.02;;;9.25;;
68315;SDS011;55508;54.368;18.406;2023-10-19T03:37:23;10.80;;;8.60;;
68315;SDS011;55508;54.368;18.406;2023-10-19T03:39:58;12.70;;;8.35;;
68315;SDS011;55508;54.368;18.406;2023-10-19T03:42:26;15.15;;;10.55;;
68315;SDS011;55508;54.368;18.406;2023-10-19T03:44:56;10.93;;;9.70;;
68315;SDS011;55508;54.368;18.406;2023-10-19T03:47:24;12.40;;;8.75;;
68315;SDS011;55508;54.368;18.406;2023-10-19T03:50:02;18.73;;;10.93;;
68315;SDS011;55508;54.368;18.406;2023-10-19T03:52:35;11.75;;;10.05;;
68315;SDS011;55508;54.368;18.406;2023-10-19T03:55:04;12.05;;;9.35;;
68315;SDS011;55508;54.368;18.406;2023-10-19T03:57:39;10.27;;;7.63;;
68315;SDS011;55508;54.368;18.406;2023-10-19T04:00:14;6.43;;;5.75;;
68315;SDS011;55508;54.368;18.406;2023-10-19T04:02:46;8.00;;;5.90;;
68315;SDS011;55508;54.368;18.406;2023-10-19T04:05:13;15.35;;;6.85;;
68315;SDS011;55508;54.368;18.406;2023-10-19T04:07:47;11.38;;;7.72;;
68315;SDS011;55508;54.368;18.406;2023-10-19T04:10:21;9.48;;;8.02;;
68315;SDS011;55508;54.368;18.406;2023-10-19T04:13:09;12.27;;;8.18;;
68315;SDS011;55508;54.368;18.406;2023-10-19T04:15:40;8.65;;;7.75;;
68315;SDS011;55508;54.368;18.406;2023-10-19T04:18:08;7.88;;;6.90;;
68315;SDS011;55508;54.368;18.406;2023-10-19T04:20:37;10.23;;;8.35;;
68315;SDS011;55508;54.368;18.406;2023-10-19T04:23:25;10.27;;;8.20;;
68315;SDS011;55508;54.368;18.406;2023-10-19T04:25:54;10.43;;;7.90;;
68315;SDS011;55508;54.368;18.406;2023-10-19T04:28:23;10.68;;;6.70;;
68315;SDS011;55508;54.368;18.406;2023-10-19T04:31:11;9.80;;;7.43;;
68315;SDS011;55508;54.368;18.406;2023-10-19T04:33:41;9.52;;;8.13;;
68315;SDS011;55508;54.368;18.406;2023-10-19T04:36:16;9.32;;;7.18;;
68315;SDS011;55508;54.368;18.406;2023-10-19T04:38:46;7.57;;;6.40;;
68315;SDS011;55508;54.368;18.406;2023-10-19T04:41:13;8.05;;;6.95;;
68315;SDS011;55508;54.368;18.406;2023-10-19T04:43:41;9.93;;;6.45;;
68315;SDS011;55508;54.368;18.406;2023-10-19T04:46:17;7.07;;;5.95;;
68315;SDS011;55508;54.368;18.406;2023-10-19T04:48:48;6.45;;;5.70;;
68315;SDS011;55508;54.368;18.406;2023-10-19T04:51:16;6.93;;;5.97;;
68315;SDS011;55508;54.368;18.406;2023-10-19T04:53:43;7.35;;;6.03;;
68315;SDS011;55508;54.368;18.406;2023-10-19T04:56:11;7.85;;;6.00;;
68315;SDS011;55508;54.368;18.406;2023-10-19T04:58:39;10.98;;;7.68;;
68315;SDS011;55508;54.368;18.406;2023-10-19T05:01:06;8.13;;;7.15;;
68315;SDS011;55508;54.368;18.406;2023-10-19T05:03:33;12.93;;;8.40;;
68315;SDS011;55508;54.368;18.406;2023-10-19T05:06:01;10.85;;;8.50;;
68315;SDS011;55508;54.368;18.406;2023-10-19T05:08:28;11.35;;;7.78;;
68315;SDS011;55508;54.368;18.406;2023-10-19T05:10:56;11.45;;;7.65;;
68315;SDS011;55508;54.368;18.406;2023-10-19T05:13:26;12.98;;;7.70;;
68315;SDS011;55508;54.368;18.406;2023-10-19T05:15:53;11.10;;;7.25;;
68315;SDS011;55508;54.368;18.406;2023-10-19T05:18:21;12.65;;;7.43;;
68315;SDS011;55508;54.368;18.406;2023-10-19T05:20:49;8.57;;;6.20;;
68315;SDS011;55508;54.368;18.406;2023-10-19T05:23:25;7.93;;;6.50;;
68315;SDS011;55508;54.368;18.406;2023-10-19T05:25:53;7.32;;;5.35;;
68315;SDS011;55508;54.368;18.406;2023-10-19T05:28:29;8.23;;;6.25;;
68315;SDS011;55508;54.368;18.406;2023-10-19T05:30:56;8.93;;;6.53;;
68315;SDS011;55508;54.368;18.406;2023-10-19T05:33:26;5.90;;;5.30;;
68315;SDS011;55508;54.368;18.406;2023-10-19T05:35:56;8.38;;;6.38;;
68315;SDS011;55508;54.368;18.406;2023-10-19T05:38:23;8.50;;;6.32;;
68315;SDS011;55508;54.368;18.406;2023-10-19T05:40:50;8.45;;;7.53;;
68315;SDS011;55508;54.368;18.406;2023-10-19T05:43:18;12.88;;;7.82;;
68315;SDS011;55508;54.368;18.406;2023-10-19T05:45:45;11.07;;;8.05;;
68315;SDS011;55508;54.368;18.406;2023-10-19T05:48:17;10.13;;;9.10;;
68315;SDS011;55508;54.368;18.406;2023-10-19T05:50:44;10.65;;;9.55;;
68315;SDS011;55508;54.368;18.406;2023-10-19T05:53:11;9.30;;;8.20;;
68315;SDS011;55508;54.368;18.406;2023-10-19T05:55:38;9.50;;;8.60;;
68315;SDS011;55508;54.368;18.406;2023-10-19T05:58:06;12.27;;;9.27;;
68315;SDS011;55508;54.368;18.406;2023-10-19T06:00:33;9.80;;;8.88;;
68315;SDS011;55508;54.368;18.406;2023-10-19T06:03:01;10.02;;;9.23;;
68315;SDS011;55508;54.368;18.406;2023-10-19T06:05:28;10.90;;;9.85;;
68315;SDS011;55508;54.368;18.406;2023-10-19T06:07:56;10.23;;;9.27;;
68315;SDS011;55508;54.368;18.406;2023-10-19T06:10:27;11.00;;;9.38;;
68315;SDS011;55508;54.368;18.406;2023-10-19T06:12:55;11.27;;;10.07;;
68315;SDS011;55508;54.368;18.406;2023-10-19T06:15:24;8.40;;;7.60;;
68315;SDS011;55508;54.368;18.406;2023-10-19T06:17:51;8.52;;;7.63;;
68315;SDS011;55508;54.368;18.406;2023-10-19T06:20:19;5.20;;;4.60;;
68315;SDS011;55508;54.368;18.406;2023-10-19T06:22:51;3.13;;;2.30;;
68315;SDS011;55508;54.368;18.406;2023-10-19T06:27:51;4.13;;;2.30;;
68315;SDS011;55508;54.368;18.406;2023-10-19T06:30:19;2.85;;;1.92;;
68315;SDS011;55508;54.368;18.406;2023-10-19T06:32:49;5.45;;;2.30;;
68315;SDS011;55508;54.368;18.406;2023-10-19T06:35:18;3.65;;;2.58;;
68315;SDS011;55508;54.368;18.406;2023-10-19T06:37:46;3.20;;;2.72;;
68315;SDS011;55508;54.368;18.406;2023-10-19T06:40:14;3.22;;;2.75;;
68315;SDS011;55508;54.368;18.406;2023-10-19T06:42:43;3.85;;;2.38;;
68315;SDS011;55508;54.368;18.406;2023-10-19T06:45:15;4.90;;;1.90;;
68315;SDS011;55508;54.368;18.406;2023-10-19T06:47:44;7.75;;;2.67;;
68315;SDS011;55508;54.368;18.406;2023-10-19T06:50:13;3.50;;;1.45;;
68315;SDS011;55508;54.368;18.406;2023-10-19T06:52:43;2.42;;;2.05;;
68315;SDS011;55508;54.368;18.406;2023-10-19T06:55:11;3.00;;;2.70;;
68315;SDS011;55508;54.368;18.406;2023-10-19T06:57:43;2.88;;;2.40;;
68315;SDS011;55508;54.368;18.406;2023-10-19T07:00:11;2.75;;;2.55;;
68315;SDS011;55508;54.368;18.406;2023-10-19T07:02:49;2.70;;;2.50;;
68315;SDS011;55508;54.368;18.406;2023-10-19T07:05:17;3.03;;;2.83;;
68315;SDS011;55508;54.368;18.406;2023-10-19T07:07:51;2.20;;;2.00;;
68315;SDS011;55508;54.368;18.406;2023-10-19T07:10:20;3.88;;;2.20;;
68315;SDS011;55508;54.368;18.406;2023-10-19T07:12:48;3.90;;;2.58;;
68315;SDS011;55508;54.368;18.406;2023-10-19T07:15:18;3.97;;;2.60;;
68315;SDS011;55508;54.368;18.406;2023-10-19T07:17:52;3.05;;;2.85;;
68315;SDS011;55508;54.368;18.406;2023-10-19T07:20:21;2.78;;;2.40;;
68315;SDS011;55508;54.368;18.406;2023-10-19T07:22:53;2.75;;;2.55;;
68315;SDS011;55508;54.368;18.406;2023-10-19T07:25:21;2.63;;;2.42;;
68315;SDS011;55508;54.368;18.406;2023-10-19T07:27:50;2.28;;;1.98;;
68315;SDS011;55508;54.368;18.406;2023-10-19T07:30:20;3.25;;;1.80;;
68315;SDS011;55508;54.368;18.406;2023-10-19T07:32:49;2.33;;;1.63;;
68315;SDS011;55508;54.368;18.406;2023-10-19T07:35:26;2.97;;;1.60;;
68315;SDS011;55508;54.368;18.406;2023-10-19T07:37:54;3.15;;;1.80;;
68315;SDS011;55508;54.368;18.406;2023-10-19T07:40:23;3.38;;;2.20;;
68315;SDS011;55508;54.368;18.406;2023-10-19T07:42:51;1.90;;;1.80;;
68315;SDS011;55508;54.368;18.406;2023-10-19T07:45:21;1.88;;;1.58;;
68315;SDS011;55508;54.368;18.406;2023-10-19T07:47:48;2.67;;;1.98;;
68315;SDS011;55508;54.368;18.406;2023-10-19T07:50:15;2.33;;;1.75;;
68315;SDS011;55508;54.368;18.406;2023-10-19T07:52:44;1.50;;;1.40;;
68315;SDS011;55508;54.368;18.406;2023-10-19T07:55:16;1.38;;;1.27;;
68315;SDS011;55508;54.368;18.406;2023-10-19T07:57:44;1.75;;;1.15;;
68315;SDS011;55508;54.368;18.406;2023-10-19T08:00:11;1.45;;;1.20;;
68315;SDS011;55508;54.368;18.406;2023-10-19T08:02:42;2.45;;;1.30;;
68315;SDS011;55508;54.368;18.406;2023-10-19T08:05:12;1.58;;;1.48;;
68315;SDS011;55508;54.368;18.406;2023-10-19T08:07:45;1.50;;;0.95;;
68315;SDS011;55508;54.368;18.406;2023-10-19T08:10:17;3.03;;;1.13;;
68315;SDS011;55508;54.368;18.406;2023-10-19T08:12:45;2.35;;;1.25;;
68315;SDS011;55508;54.368;18.406;2023-10-19T08:15:17;3.30;;;1.25;;
68315;SDS011;55508;54.368;18.406;2023-10-19T08:17:45;1.65;;;1.10;;
68315;SDS011;55508;54.368;18.406;2023-10-19T08:20:17;1.20;;;1.10;;
68315;SDS011;55508;54.368;18.406;2023-10-19T08:22:51;1.95;;;1.13;;
68315;SDS011;55508;54.368;18.406;2023-10-19T08:25:19;2.50;;;1.42;;
68315;SDS011;55508;54.368;18.406;2023-10-19T08:27:48;1.15;;;1.05;;
68315;SDS011;55508;54.368;18.406;2023-10-19T08:30:23;1.60;;;1.10;;
68315;SDS011;55508;54.368;18.406;2023-10-19T08:32:53;1.77;;;1.10;;
68315;SDS011;55508;54.368;18.406;2023-10-19T08:35:21;1.13;;;1.05;;
68315;SDS011;55508;54.368;18.406;2023-10-19T08:37:52;2.33;;;1.15;;
68315;SDS011;55508;54.368;18.406;2023-10-19T08:40:21;1.30;;;1.20;;
68315;SDS011;55508;54.368;18.406;2023-10-19T08:42:50;3.33;;;1.48;;
68315;SDS011;55508;54.368;18.406;2023-10-19T08:45:18;1.50;;;1.40;;
68315;SDS011;55508;54.368;18.406;2023-10-19T08:50:33;1.60;;;1.50;;
68315;SDS011;55508;54.368;18.406;2023-10-19T08:53:01;1.73;;;1.63;;
68315;SDS011;55508;54.368;18.406;2023-10-19T08:55:32;1.80;;;1.70;;
68315;SDS011;55508;54.368;18.406;2023-10-19T08:58:14;1.55;;;1.45;;
68315;SDS011;55508;54.368;18.406;2023-10-19T09:00:45;5.68;;;1.90;;
68315;SDS011;55508;54.368;18.406;2023-10-19T09:03:14;2.35;;;1.83;;
68315;SDS011;55508;54.368;18.406;2023-10-19T09:05:44;1.98;;;1.70;;
68315;SDS011;55508;54.368;18.406;2023-10-19T09:08:15;1.48;;;1.38;;
68315;SDS011;55508;54.368;18.406;2023-10-19T09:10:44;2.17;;;1.98;;
68315;SDS011;55508;54.368;18.406;2023-10-19T09:13:12;1.73;;;1.55;;
68315;SDS011;55508;54.368;18.406;2023-10-19T09:15:42;3.28;;;1.90;;
68315;SDS011;55508;54.368;18.406;2023-10-19T09:18:20;2.22;;;1.70;;
68315;SDS011;55508;54.368;18.406;2023-10-19T09:20:49;2.38;;;1.45;;
68315;SDS011;55508;54.368;18.406;2023-10-19T09:23:23;1.88;;;1.55;;
68315;SDS011;55508;54.368;18.406;2023-10-19T09:25:52;1.73;;;1.63;;
68315;SDS011;55508;54.368;18.406;2023-10-19T09:28:20;2.08;;;1.73;;
68315;SDS011;55508;54.368;18.406;2023-10-19T09:30:51;2.28;;;2.08;;
68315;SDS011;55508;54.368;18.406;2023-10-19T09:33:19;2.63;;;1.70;;
68315;SDS011;55508;54.368;18.406;2023-10-19T09:35:49;2.78;;;1.48;;
68315;SDS011;55508;54.368;18.406;2023-10-19T09:38:20;1.87;;;1.60;;
68315;SDS011;55508;54.368;18.406;2023-10-19T09:40:52;1.52;;;1.40;;
68315;SDS011;55508;54.368;18.406;2023-10-19T09:46:22;1.33;;;1.10;;
68315;SDS011;55508;54.368;18.406;2023-10-19T09:48:54;3.25;;;1.15;;
68315;SDS011;55508;54.368;18.406;2023-10-19T09:51:22;1.35;;;1.25;;
68315;SDS011;55508;54.368;18.406;2023-10-19T09:56:46;1.45;;;1.20;;
68315;SDS011;55508;54.368;18.406;2023-10-19T09:59:33;2.65;;;1.40;;
68315;SDS011;55508;54.368;18.406;2023-10-19T10:02:07;2.35;;;1.42;;
68315;SDS011;55508;54.368;18.406;2023-10-19T10:04:36;2.03;;;1.60;;
68315;SDS011;55508;54.368;18.406;2023-10-19T10:07:05;1.85;;;1.30;;
68315;SDS011;55508;54.368;18.406;2023-10-19T10:09:38;1.80;;;1.40;;
68315;SDS011;55508;54.368;18.406;2023-10-19T10:12:20;2.72;;;1.52;;
68315;SDS011;55508;54.368;18.406;2023-10-19T10:14:59;1.70;;;1.30;;
68315;SDS011;55508;54.368;18.406;2023-10-19T10:17:38;2.45;;;1.50;;
68315;SDS011;55508;54.368;18.406;2023-10-19T10:25:50;1.65;;;1.30;;
68315;SDS011;55508;54.368;18.406;2023-10-19T10:28:21;2.00;;;1.67;;
68315;SDS011;55508;54.368;18.406;2023-10-19T10:33:43;1.92;;;1.70;;
68315;SDS011;55508;54.368;18.406;2023-10-19T10:36:17;3.00;;;2.72;;
68315;SDS011;55508;54.368;18.406;2023-10-19T10:38:48;5.10;;;3.40;;
68315;SDS011;55508;54.368;18.406;2023-10-19T10:41:22;4.60;;;3.67;;
68315;SDS011;55508;54.368;18.406;2023-10-19T10:43:56;6.72;;;4.00;;
68315;SDS011;55508;54.368;18.406;2023-10-19T10:46:24;4.45;;;3.80;;
68315;SDS011;55508;54.368;18.406;2023-10-19T10:48:54;3.63;;;3.30;;
68315;SDS011;55508;54.368;18.406;2023-10-19T10:51:25;3.90;;;3.60;;
68315;SDS011;55508;54.368;18.406;2023-10-19T10:53:57;3.50;;;3.20;;
68315;SDS011;55508;54.368;18.406;2023-10-19T10:56:25;3.63;;;3.33;;
68315;SDS011;55508;54.368;18.406;2023-10-19T10:58:52;4.28;;;3.20;;
68315;SDS011;55508;54.368;18.406;2023-10-19T11:01:28;6.07;;;3.45;;
68315;SDS011;55508;54.368;18.406;2023-10-19T11:04:06;3.95;;;3.15;;
68315;SDS011;55508;54.368;18.406;2023-10-19T11:09:25;3.85;;;3.05;;
68315;SDS011;55508;54.368;18.406;2023-10-19T11:11:52;3.20;;;2.72;;
68315;SDS011;55508;54.368;18.406;2023-10-19T11:14:20;2.95;;;2.75;;
68315;SDS011;55508;54.368;18.406;2023-10-19T11:16:50;2.70;;;2.50;;
68315;SDS011;55508;54.368;18.406;2023-10-19T11:19:17;4.15;;;2.80;;
68315;SDS011;55508;54.368;18.406;2023-10-19T11:21:52;4.10;;;2.75;;
68315;SDS011;55508;54.368;18.406;2023-10-19T11:24:25;3.95;;;1.83;;
68315;SDS011;55508;54.368;18.406;2023-10-19T11:26:52;4.13;;;1.90;;
68315;SDS011;55508;54.368;18.406;2023-10-19T11:29:21;3.25;;;2.03;;
68315;SDS011;55508;54.368;18.406;2023-10-19T11:31:58;2.13;;;2.03;;
68315;SDS011;55508;54.368;18.406;2023-10-19T11:34:29;3.03;;;2.45;;
68315;SDS011;55508;54.368;18.406;2023-10-19T11:36:58;4.80;;;3.40;;
68315;SDS011;55508;54.368;18.406;2023-10-19T11:39:27;2.85;;;2.42;;
68315;SDS011;55508;54.368;18.406;2023-10-19T11:41:55;2.90;;;1.77;;
68315;SDS011;55508;54.368;18.406;2023-10-19T11:44:22;3.05;;;2.65;;
68315;SDS011;55508;54.368;18.406;2023-10-19T11:46:49;7.72;;;5.30;;
68315;SDS011;55508;54.368;18.406;2023-10-19T11:49:16;4.80;;;4.10;;
68315;SDS011;55508;54.368;18.406;2023-10-19T11:51:43;3.67;;;3.08;;
68315;SDS011;55508;54.368;18.406;2023-10-19T11:54:10;6.47;;;4.22;;
68315;SDS011;55508;54.368;18.406;2023-10-19T11:56:39;4.25;;;3.88;;
68315;SDS011;55508;54.368;18.406;2023-10-19T11:59:06;3.78;;;2.65;;
68315;SDS011;55508;54.368;18.406;2023-10-19T12:01:34;3.03;;;2.78;;
68315;SDS011;55508;54.368;18.406;2023-10-19T12:04:01;3.00;;;2.70;;
68315;SDS011;55508;54.368;18.406;2023-10-19T12:06:28;3.10;;;2.80;;
68315;SDS011;55508;54.368;18.406;2023-10-19T12:08:55;3.08;;;2.78;;
68315;SDS011;55508;54.368;18.406;2023-10-19T12:11:25;2.60;;;2.05;;
68315;SDS011;55508;54.368;18.406;2023-10-19T12:13:52;4.63;;;2.83;;
68315;SDS011;55508;54.368;18.406;2023-10-19T12:16:21;2.50;;;2.30;;
68315;SDS011;55508;54.368;18.406;2023-10-19T12:18:50;4.57;;;2.80;;
68315;SDS011;55508;54.368;18.406;2023-10-19T12:21:17;3.45;;;2.58;;
68315;SDS011;55508;54.368;18.406;2023-10-19T12:23:45;3.92;;;2.25;;
68315;SDS011;55508;54.368;18.406;2023-10-19T12:26:18;2.72;;;2.00;;
68315;SDS011;55508;54.368;18.406;2023-10-19T12:28:46;2.30;;;2.10;;
68315;SDS011;55508;54.368;18.406;2023-10-19T12:31:16;4.55;;;2.20;;
68315;SDS011;55508;54.368;18.406;2023-10-19T12:33:46;3.17;;;2.88;;
68315;SDS011;55508;54.368;18.406;2023-10-19T12:36:13;2.85;;;2.63;;
68315;SDS011;55508;54.368;18.406;2023-10-19T12:39:01;2.60;;;1.52;;
68315;SDS011;55508;54.368;18.406;2023-10-19T12:41:28;2.45;;;1.90;;
68315;SDS011;55508;54.368;18.406;2023-10-19T12:43:55;2.05;;;1.80;;
68315;SDS011;55508;54.368;18.406;2023-10-19T12:46:30;1.70;;;1.60;;
68315;SDS011;55508;54.368;18.406;2023-10-19T12:48:57;2.55;;;2.35;;
68315;SDS011;55508;54.368;18.406;2023-10-19T12:51:25;2.72;;;1.60;;
68315;SDS011;55508;54.368;18.406;2023-10-19T12:53:53;2.78;;;1.65;;
68315;SDS011;55508;54.368;18.406;2023-10-19T12:56:22;3.63;;;1.92;;
68315;SDS011;55508;54.368;18.406;2023-10-19T12:58:56;3.30;;;2.10;;
68315;SDS011;55508;54.368;18.406;2023-10-19T13:01:23;2.67;;;1.70;;
68315;SDS011;55508;54.368;18.406;2023-10-19T13:03:50;3.58;;;2.10;;
68315;SDS011;55508;54.368;18.406;2023-10-19T13:06:18;2.85;;;1.95;;
68315;SDS011;55508;54.368;18.406;2023-10-19T13:08:46;3.45;;;2.17;;
68315;SDS011;55508;54.368;18.406;2023-10-19T13:11:15;2.88;;;1.90;;
68315;SDS011;55508;54.368;18.406;2023-10-19T13:13:45;3.90;;;1.90;;
68315;SDS011;55508;54.368;18.406;2023-10-19T13:16:14;2.70;;;1.80;;
68315;SDS011;55508;54.368;18.406;2023-10-19T13:18:43;4.20;;;2.05;;
68315;SDS011;55508;54.368;18.406;2023-10-19T13:21:10;3.72;;;1.70;;
68315;SDS011;55508;54.368;18.406;2023-10-19T13:23:48;2.40;;;1.90;;
68315;SDS011;55508;54.368;18.406;2023-10-19T13:26:16;2.40;;;2.17;;
68315;SDS011;55508;54.368;18.406;2023-10-19T13:28:44;2.35;;;2.15;;
68315;SDS011;55508;54.368;18.406;2023-10-19T13:31:12;3.63;;;2.20;;
68315;SDS011;55508;54.368;18.406;2023-10-19T13:33:41;2.30;;;2.10;;
68315;SDS011;55508;54.368;18.406;2023-10-19T13:36:12;3.50;;;3.20;;
68315;SDS011;55508;54.368;18.406;2023-10-19T13:38:40;4.18;;;3.33;;
68315;SDS011;55508;54.368;18.406;2023-10-19T13:41:08;4.38;;;3.90;;
68315;SDS011;55508;54.368;18.406;2023-10-19T13:43:39;2.78;;;2.33;;
68315;SDS011;55508;54.368;18.406;2023-10-19T13:46:06;3.05;;;2.28;;
68315;SDS011;55508;54.368;18.406;2023-10-19T13:48:33;4.78;;;2.55;;
68315;SDS011;55508;54.368;18.406;2023-10-19T13:51:00;4.32;;;2.60;;
68315;SDS011;55508;54.368;18.406;2023-10-19T13:53:32;4.13;;;2.92;;
68315;SDS011;55508;54.368;18.406;2023-10-19T13:55:59;2.83;;;1.90;;
68315;SDS011;55508;54.368;18.406;2023-10-19T13:58:26;2.17;;;1.98;;
68315;SDS011;55508;54.368;18.406;2023-10-19T14:00:53;2.70;;;2.47;;
68315;SDS011;55508;54.368;18.406;2023-10-19T14:03:20;4.85;;;2.50;;
68315;SDS011;55508;54.368;18.406;2023-10-19T14:05:48;2.85;;;2.65;;
68315;SDS011;55508;54.368;18.406;2023-10-19T14:08:16;2.65;;;2.00;;
68315;SDS011;55508;54.368;18.406;2023-10-19T14:10:44;2.70;;;2.50;;
68315;SDS011;55508;54.368;18.406;2023-10-19T14:13:12;2.58;;;2.35;;
68315;SDS011;55508;54.368;18.406;2023-10-19T14:15:39;2.47;;;2.22;;
68315;SDS011;55508;54.368;18.406;2023-10-19T14:18:07;2.42;;;2.22;;
68315;SDS011;55508;54.368;18.406;2023-10-19T14:20:35;3.25;;;3.00;;
68315;SDS011;55508;54.368;18.406;2023-10-19T14:23:06;3.25;;;3.05;;
68315;SDS011;55508;54.368;18.406;2023-10-19T14:25:38;3.53;;;3.13;;
68315;SDS011;55508;54.368;18.406;2023-10-19T14:28:10;3.70;;;2.60;;
68315;SDS011;55508;54.368;18.406;2023-10-19T14:30:38;2.72;;;2.35;;
68315;SDS011;55508;54.368;18.406;2023-10-19T14:33:07;3.28;;;2.25;;
68315;SDS011;55508;54.368;18.406;2023-10-19T14:35:39;2.78;;;2.58;;
68315;SDS011;55508;54.368;18.406;2023-10-19T14:38:09;3.78;;;2.63;;
68315;SDS011;55508;54.368;18.406;2023-10-19T14:40:38;5.50;;;2.90;;
68315;SDS011;55508;54.368;18.406;2023-10-19T14:43:10;2.90;;;2.60;;
68315;SDS011;55508;54.368;18.406;2023-10-19T14:45:42;3.25;;;2.83;;
68315;SDS011;55508;54.368;18.406;2023-10-19T14:48:10;6.03;;;2.38;;
68315;SDS011;55508;54.368;18.406;2023-10-19T14:50:38;5.30;;;2.50;;
68315;SDS011;55508;54.368;18.406;2023-10-19T14:53:05;4.80;;;2.42;;
68315;SDS011;55508;54.368;18.406;2023-10-19T14:55:33;3.05;;;2.58;;
68315;SDS011;55508;54.368;18.406;2023-10-19T14:58:00;3.53;;;2.60;;
68315;SDS011;55508;54.368;18.406;2023-10-19T15:00:28;3.25;;;2.75;;
68315;SDS011;55508;54.368;18.406;2023-10-19T15:03:05;2.55;;;2.35;;
68315;SDS011;55508;54.368;18.406;2023-10-19T15:05:38;2.38;;;2.22;;
68315;SDS011;55508;54.368;18.406;2023-10-19T15:08:05;4.55;;;2.50;;
68315;SDS011;55508;54.368;18.406;2023-10-19T15:10:34;2.67;;;2.47;;